Aeroporto :
LOGIN :

Iscrizione | Disclaimer

   EN    FR    IT 

 










Sommario :    VFR   VFR Marginale   IFR   IFR Intensivo   IFR Molto Intensivo
Visibilità : 
Base nubi : 
>= 8 km
>= 3000ft
5 / 8 km
1000 / 3000 ft
1500m / 5 km
500 / 1000 ft
800 / 1500m
200 / 500 ft
< 800m
< 200 ft
Simboli :   Temporali  Nebbia  Neve Forte  Precipitazioni Forti  Vento > 20 kt
SIGMETs :   Varie  Temporali  Ghiacco  Turbolenza  Onda orograficha  Ceneri Vulcaniche







- Altitudine del aeroporto : 83 ft
- Codice IATA : LHR
- Carte del aeroporto


EGLL - London Heathrow

ULTIMO METAR :
  • 151850Z AUTO 04004KT 010V080 9999 NCD 20/10 Q1021

METARs OBSOLETI :
  • 151820Z AUTO 07005KT 040V100 9999 NCD 21/10 Q1021
  • 151750Z AUTO 03004KT 310V110 9999 NCD 21/10 Q1021
  • 151720Z AUTO 04004KT 350V080 9999 NCD 22/10 Q1021
  • 151650Z AUTO 08006KT 030V120 9999 NCD 21/10 Q1021
  • 151620Z AUTO 07004KT 340V160 9999 NCD 21/10 Q1021

TAF TAF EGLL
Valido dal 15 a 18 ore il 17 a 00 ore UTC


151710Z 1518/1624 03006KT 9999 SCT030
PROB40 1600/1607 7000
BECMG 1618/1621 23010KT
Nessun NOTAM noto per questo aeroporto.



MetMap, La meteo Aeronautica in un colpo d'occhio ! - Copyright ORBIFLY Dicembre 2007 - Disclaimer

ORBIFLY MET'MAP TEAM :

Programmazione e sviluppo : Alexandra Zaïnal
Concezione e sviluppo : Baudouin d'Aumeries
Co-Programmazione e sviluppo : Marc-Olivier Méhu
Supporto tecnico e logistico : Manuel Goepfert
Aiuto per la traduzione : Arnaldo La Scala

Contatto : metmap@orbifly.com




FONTI E CREDITI :

   NOAA